Guedel 3 — FGG8104 — position and weather

sailwx.info

Track history (hours):
 
Tides and Currents Weather Stations Pressure Air Temp Water Temp Dewpoint Dewpoint Depression Visibility Wind Speed Wind Dir Waves Ship Positions

Guedel 3

Last reported at 2017-Nov-15 18:42 UTC. Time now 2017-Nov-20 18:56 UTC.
Position N 47°38' W 002°46'.

Length 40 m; draft 2 m.

MMSI: 227051650.

Date/timePositionNaut miles runAvg speedWind from/ knotsBaromVisibWave heightAir tempDewpointWater temp
2017-Nov-15 18:42N 47°38' W 002°46'0 1.3
2017-Nov-15 18:30N 47°38' W 002°46'3 6.2
2017-Nov-15 18:00N 47°37' W 002°50'3 6.8
2017-Nov-15 17:30N 47°34' W 002°54'3 5.7
2017-Nov-15 17:00N 47°32' W 002°55'4 8.8
2017-Nov-15 16:30N 47°28' W 002°59'4 8.9
2017-Nov-15 16:00N 47°25' W 003°04'5 9.1
2017-Nov-15 15:30N 47°22' W 003°08'1 0.1
2017-Nov-15 00:14N 47°21' W 003°09'1 2.3
2017-Nov-15 00:00N 47°21' W 003°09'0 0.0
2017-Nov-14 23:30N 47°21' W 003°09'0 0.0
2017-Nov-14 23:00N 47°21' W 003°09'0 0.0
2017-Nov-14 22:30N 47°21' W 003°09'0 0.0
2017-Nov-14 22:00N 47°21' W 003°09'0 0.1
2017-Nov-14 21:30N 47°21' W 003°09'0 0.0
2017-Nov-14 21:00N 47°21' W 003°09'1 1.7
2017-Nov-14 20:30N 47°22' W 003°08'5 9.1
2017-Nov-14 20:00N 47°25' W 003°04'5 9.2
2017-Nov-14 19:30N 47°29' W 002°59'5 9.2
2017-Nov-14 19:01N 47°33' W 002°55'510.9
2017-Nov-14 18:30N 47°37' W 002°50'3 6.1
2017-Nov-14 18:00N 47°38' W 002°46'0 1.0
2017-Nov-14 17:31N 47°38' W 002°46'0 0.0
2017-Nov-14 17:00N 47°38' W 002°46'0 0.0
2017-Nov-14 16:30N 47°38' W 002°46'0 0.0
2017-Nov-14 16:00N 47°38' W 002°46'0 0.0
2017-Nov-14 15:31N 47°38' W 002°46'0 0.0
2017-Nov-14 15:00N 47°38' W 002°46'0 0.0
2017-Nov-14 14:30N 47°38' W 002°46'0 0.5
2017-Nov-14 14:00N 47°38' W 002°46'4 7.8
2017-Nov-14 13:30N 47°36' W 002°51'510.2
2017-Nov-14 13:00N 47°32' W 002°55'5 9.5
2017-Nov-14 12:30N 47°28' W 002°59'5 9.9
2017-Nov-14 12:00N 47°25' W 003°05'5 9.3
2017-Nov-14 11:30N 47°21' W 003°09'0 0.0
2017-Nov-13 23:06N 47°21' W 003°09'0 3.8
2017-Nov-13 23:00N 47°21' W 003°09'0 0.6
2017-Nov-13 22:30N 47°21' W 003°09'0 0.0
2017-Nov-13 22:00N 47°21' W 003°09'  
2017-Nov-10 12:16N 47°38' W 002°46'1 3.2
2017-Nov-10 12:00N 47°38' W 002°46'4 7.4
2017-Nov-10 11:30N 47°36' W 002°51'4 7.6
2017-Nov-10 11:01N 47°33' W 002°55'4 8.4
2017-Nov-10 10:30N 47°29' W 002°57'5 9.3
2017-Nov-10 10:00N 47°26' W 003°02'4 8.9
2017-Nov-10 09:30N 47°23' W 003°06'3 0.2
2017-Nov-09 18:06N 47°21' W 003°09'0 3.8
2017-Nov-09 18:00N 47°21' W 003°09'0 0.4
2017-Nov-09 17:30N 47°21' W 003°09'0 0.0
2017-Nov-09 17:00N 47°21' W 003°09'0 0.0
2017-Nov-09 16:30N 47°21' W 003°09'0 0.0
2017-Nov-09 16:00N 47°21' W 003°09'0 0.0
2017-Nov-09 15:30N 47°21' W 003°09'2 4.0
2017-Nov-09 15:00N 47°23' W 003°07'4 8.3
2017-Nov-09 14:30N 47°26' W 003°03'4 8.5
2017-Nov-09 14:00N 47°29' W 002°58'4 8.5
2017-Nov-09 13:30N 47°32' W 002°55'510.7
2017-Nov-09 13:01N 47°37' W 002°50'3 6.9
2017-Nov-09 12:30N 47°38' W 002°46'0 0.0
2017-Nov-08 08:04N 47°38' W 002°46'0 0.6
2017-Nov-08 08:00N 47°38' W 002°46'3 6.0
2017-Nov-08 07:30N 47°37' W 002°49'5 9.7
2017-Nov-08 07:00N 47°34' W 002°55'5 9.3
2017-Nov-08 06:30N 47°29' W 002°57'5 9.8
2017-Nov-08 06:00N 47°26' W 003°03'4 8.7
2017-Nov-08 05:30N 47°22' W 003°06'2 0.2
2017-Nov-07 15:59N 47°21' W 003°09'0 1.0
2017-Nov-07 15:30N 47°21' W 003°09'0 0.0
2017-Nov-07 15:00N 47°21' W 003°09'0 0.0
2017-Nov-07 14:30N 47°21' W 003°09'0 0.1
2017-Nov-07 14:00N 47°21' W 003°09'4 8.2
2017-Nov-07 13:30N 47°23' W 003°04'4 7.2
2017-Nov-07 13:00N 47°25' W 002°59'4 8.5
2017-Nov-07 12:30N 47°29' W 002°56'510.1
2017-Nov-07 12:01N 47°34' W 002°54'5 9.8
2017-Nov-07 11:30N 47°37' W 002°48'2 4.5
2017-Nov-07 11:00N 47°38' W 002°46'  
Track history (hours):
 
Tides and Currents Weather Stations Pressure Air Temp Water Temp Dewpoint Dewpoint Depression Visibility Wind Speed Wind Dir Waves Ship Positions

Guedel 3

Last reported at 2017-Nov-15 18:42 UTC. Time now 2017-Nov-20 18:56 UTC.
Position N 47°38' W 002°46'.

Length 40 m; draft 2 m.

MMSI: 227051650.

Date/timePositionNaut miles runAvg speedWind from/ knotsBaromVisibWave heightAir tempDewpointWater temp
2017-Nov-15 18:42N 47°38' W 002°46'0 1.3
2017-Nov-15 18:30N 47°38' W 002°46'3 6.2
2017-Nov-15 18:00N 47°37' W 002°50'3 6.8
2017-Nov-15 17:30N 47°34' W 002°54'3 5.7
2017-Nov-15 17:00N 47°32' W 002°55'4 8.8
2017-Nov-15 16:30N 47°28' W 002°59'4 8.9
2017-Nov-15 16:00N 47°25' W 003°04'5 9.1
2017-Nov-15 15:30N 47°22' W 003°08'1 0.1
2017-Nov-15 00:14N 47°21' W 003°09'1 2.3
2017-Nov-15 00:00N 47°21' W 003°09'0 0.0
2017-Nov-14 23:30N 47°21' W 003°09'0 0.0
2017-Nov-14 23:00N 47°21' W 003°09'0 0.0
2017-Nov-14 22:30N 47°21' W 003°09'0 0.0
2017-Nov-14 22:00N 47°21' W 003°09'0 0.1
2017-Nov-14 21:30N 47°21' W 003°09'0 0.0
2017-Nov-14 21:00N 47°21' W 003°09'1 1.7
2017-Nov-14 20:30N 47°22' W 003°08'5 9.1
2017-Nov-14 20:00N 47°25' W 003°04'5 9.2
2017-Nov-14 19:30N 47°29' W 002°59'5 9.2
2017-Nov-14 19:01N 47°33' W 002°55'510.9
2017-Nov-14 18:30N 47°37' W 002°50'3 6.1
2017-Nov-14 18:00N 47°38' W 002°46'0 1.0
2017-Nov-14 17:31N 47°38' W 002°46'0 0.0
2017-Nov-14 17:00N 47°38' W 002°46'0 0.0
2017-Nov-14 16:30N 47°38' W 002°46'0 0.0
2017-Nov-14 16:00N 47°38' W 002°46'0 0.0
2017-Nov-14 15:31N 47°38' W 002°46'0 0.0
2017-Nov-14 15:00N 47°38' W 002°46'0 0.0
2017-Nov-14 14:30N 47°38' W 002°46'0 0.5
2017-Nov-14 14:00N 47°38' W 002°46'4 7.8
2017-Nov-14 13:30N 47°36' W 002°51'510.2
2017-Nov-14 13:00N 47°32' W 002°55'5 9.5
2017-Nov-14 12:30N 47°28' W 002°59'5 9.9
2017-Nov-14 12:00N 47°25' W 003°05'5 9.3
2017-Nov-14 11:30N 47°21' W 003°09'0 0.0
2017-Nov-13 23:06N 47°21' W 003°09'0 3.8
2017-Nov-13 23:00N 47°21' W 003°09'0 0.6
2017-Nov-13 22:30N 47°21' W 003°09'0 0.0
2017-Nov-13 22:00N 47°21' W 003°09'  
2017-Nov-10 12:16N 47°38' W 002°46'1 3.2
2017-Nov-10 12:00N 47°38' W 002°46'4 7.4
2017-Nov-10 11:30N 47°36' W 002°51'4 7.6
2017-Nov-10 11:01N 47°33' W 002°55'4 8.4
2017-Nov-10 10:30N 47°29' W 002°57'5 9.3
2017-Nov-10 10:00N 47°26' W 003°02'4 8.9
2017-Nov-10 09:30N 47°23' W 003°06'3 0.2
2017-Nov-09 18:06N 47°21' W 003°09'0 3.8
2017-Nov-09 18:00N 47°21' W 003°09'0 0.4
2017-Nov-09 17:30N 47°21' W 003°09'0 0.0
2017-Nov-09 17:00N 47°21' W 003°09'0 0.0
2017-Nov-09 16:30N 47°21' W 003°09'0 0.0
2017-Nov-09 16:00N 47°21' W 003°09'0 0.0
2017-Nov-09 15:30N 47°21' W 003°09'2 4.0
2017-Nov-09 15:00N 47°23' W 003°07'4 8.3
2017-Nov-09 14:30N 47°26' W 003°03'4 8.5
2017-Nov-09 14:00N 47°29' W 002°58'4 8.5
2017-Nov-09 13:30N 47°32' W 002°55'510.7
2017-Nov-09 13:01N 47°37' W 002°50'3 6.9
2017-Nov-09 12:30N 47°38' W 002°46'0 0.0
2017-Nov-08 08:04N 47°38' W 002°46'0 0.6
2017-Nov-08 08:00N 47°38' W 002°46'3 6.0
2017-Nov-08 07:30N 47°37' W 002°49'5 9.7
2017-Nov-08 07:00N 47°34' W 002°55'5 9.3
2017-Nov-08 06:30N 47°29' W 002°57'5 9.8
2017-Nov-08 06:00N 47°26' W 003°03'4 8.7
2017-Nov-08 05:30N 47°22' W 003°06'2 0.2
2017-Nov-07 15:59N 47°21' W 003°09'0 1.0
2017-Nov-07 15:30N 47°21' W 003°09'0 0.0
2017-Nov-07 15:00N 47°21' W 003°09'0 0.0
2017-Nov-07 14:30N 47°21' W 003°09'0 0.1
2017-Nov-07 14:00N 47°21' W 003°09'4 8.2
2017-Nov-07 13:30N 47°23' W 003°04'4 7.2
2017-Nov-07 13:00N 47°25' W 002°59'4 8.5
2017-Nov-07 12:30N 47°29' W 002°56'510.1
2017-Nov-07 12:01N 47°34' W 002°54'5 9.8
2017-Nov-07 11:30N 47°37' W 002°48'2 4.5
2017-Nov-07 11:00N 47°38' W 002°46'  

Dump ship's entire track history